Time,TemperatureF,DewpointF,PressureIn,WindDirection,WindDirectionDegrees,WindSpeedMPH,WindSpeedGustMPH,Humidity,HourlyPrecipIn,Conditions,Clouds,dailyrainin,SoftwareType,DateUTC
2013-09-09 00:00:00,59.9,40.7,30.15,South,180,0.0,1.0,49,0.00,CLR,,0.00,WeatherDisplay:10.37,2013-09-09 07:00:00,
2013-09-09 00:05:00,59.9,40.7,30.14,SE,135,0.0,0.0,49,0.00,CLR,,0.00,WeatherDisplay:10.37,2013-09-09 07:05:00,
2013-09-09 00:10:00,59.9,40.7,30.14,SE,135,0.0,0.0,49,0.00,CLR,,0.00,WeatherDisplay:10.37,2013-09-09 07:10:00,
2013-09-09 00:15:00,59.9,41.7,30.14,NE,45,0.0,0.0,51,0.00,CLR,,0.00,WeatherDisplay:10.37,2013-09-09 07:15:00,
2013-09-09 00:20:00,59.9,41.7,30.14,NE,45,0.0,0.0,51,0.00,CLR,,0.00,WeatherDisplay:10.37,2013-09-09 07:20:00,
2013-09-09 00:25:00,59.9,41.7,30.14,ESE,112,0.0,0.0,51,0.00,CLR,,0.00,WeatherDisplay:10.37,2013-09-09 07:25:00,
2013-09-09 00:30:00,59.9,41.7,30.14,ENE,68,0.0,0.0,51,0.00,CLR,,0.00,WeatherDisplay:10.37,2013-09-09 07:30:00,
2013-09-09 00:35:00,59.7,41.6,30.14,SSW,202,0.0,0.0,51,0.00,CLR,,0.00,WeatherDisplay:10.37,2013-09-09 07:35:00,
2013-09-09 00:40:00,59.5,40.9,30.14,SW,225,0.0,0.0,50,0.00,CLR,,0.00,WeatherDisplay:10.37,2013-09-09 07:40:00,
2013-09-09 00:45:00,59.4,41.2,30.14,South,180,1.2,0.0,51,0.00,CLR,,0.00,WeatherDisplay:10.37,2013-09-09 07:45:00,
2013-09-09 00:50:00,59.2,41.1,30.14,SSE,158,0.0,0.0,51,0.00,CLR,,0.00,WeatherDisplay:10.37,2013-09-09 07:50:00,
2013-09-09 00:55:00,59.2,41.1,30.14,ENE,68,0.0,0.0,51,0.00,CLR,,0.00,WeatherDisplay:10.37,2013-09-09 07:55:00,
2013-09-09 01:00:00,59.2,41.6,30.14,North,0,0.0,0.0,52,0.00,CLR,,0.00,WeatherDisplay:10.37,2013-09-09 08:00:00,
2013-09-09 01:05:00,59.2,41.6,30.13,NW,315,0.0,0.0,52,0.00,CLR,,0.00,WeatherDisplay:10.37,2013-09-09 08:05:00,
2013-09-09 01:10:00,59.4,41.7,30.13,SSW,202,0.0,0.0,52,0.00,CLR,,0.00,WeatherDisplay:10.37,2013-09-09 08:10:00,
2013-09-09 01:15:00,59.4,41.7,30.13,ESE,112,0.0,0.0,52,0.00,CLR,,0.00,WeatherDisplay:10.37,2013-09-09 08:15:00,
2013-09-09 01:20:00,59.4,42.2,30.13,East,90,0.0,0.0,53,0.00,CLR,,0.00,WeatherDisplay:10.37,2013-09-09 08:20:00,
2013-09-09 01:25:00,59.5,42.4,30.14,South,180,0.0,0.0,53,0.00,CLR,,0.00,WeatherDisplay:10.37,2013-09-09 08:25:00,
2013-09-09 01:30:00,59.5,42.4,30.14,SE,135,0.0,0.0,53,0.00,CLR,,0.00,WeatherDisplay:10.37,2013-09-09 08:30:00,
2013-09-09 01:35:00,59.7,42.6,30.14,SSW,202,0.0,0.0,53,0.00,CLR,,0.00,WeatherDisplay:10.37,2013-09-09 08:35:00,
2013-09-09 01:40:00,59.5,42.4,30.14,WSW,248,0.0,0.0,53,0.00,CLR,,0.00,WeatherDisplay:10.37,2013-09-09 08:40:00,
2013-09-09 01:45:00,59.5,41.9,30.14,NNW,338,0.0,0.0,52,0.00,CLR,,0.00,WeatherDisplay:10.37,2013-09-09 08:45:00,
2013-09-09 01:50:00,59.4,42.2,30.14,NNE,22,0.0,0.0,53,0.00,CLR,,0.00,WeatherDisplay:10.37,2013-09-09 08:50:00,
2013-09-09 01:55:00,59.2,42.0,30.14,NE,45,0.0,0.0,53,0.00,CLR,,0.00,WeatherDisplay:10.37,2013-09-09 08:55:00,
2013-09-09 02:00:00,59.2,42.0,30.14,NNE,22,0.0,0.0,53,0.00,CLR,,0.00,WeatherDisplay:10.37,2013-09-09 09:00:00,
2013-09-09 02:05:00,59.4,42.7,30.14,SSE,158,0.0,0.0,54,0.00,CLR,,0.00,WeatherDisplay:10.37,2013-09-09 09:05:00,
2013-09-09 02:10:00,59.4,42.7,30.14,South,180,0.0,0.0,54,0.00,CLR,,0.00,WeatherDisplay:10.37,2013-09-09 09:10:00,
2013-09-09 02:15:00,59.4,42.7,30.14,South,180,0.0,0.0,54,0.00,CLR,,0.00,WeatherDisplay:10.37,2013-09-09 09:15:00,
2013-09-09 02:20:00,59.5,42.9,30.14,SSW,202,0.0,0.0,54,0.00,CLR,,0.00,WeatherDisplay:10.37,2013-09-09 09:20:00,
2013-09-09 02:25:00,59.4,42.7,30.14,South,180,0.0,0.0,54,0.00,CLR,,0.00,WeatherDisplay:10.37,2013-09-09 09:25:00,
2013-09-09 02:30:00,59.4,42.7,30.14,SSW,202,0.0,0.0,54,0.00,CLR,,0.00,WeatherDisplay:10.37,2013-09-09 09:30:00,
2013-09-09 02:35:00,59.2,42.0,30.14,SSW,202,0.0,0.0,53,0.00,CLR,,0.00,WeatherDisplay:10.37,2013-09-09 09:35:00,
2013-09-09 02:40:00,59.0,41.9,30.14,South,180,0.0,0.0,53,0.00,CLR,,0.00,WeatherDisplay:10.37,2013-09-09 09:40:00,
2013-09-09 02:45:00,59.0,41.9,30.14,SSE,158,0.0,0.0,53,0.00,CLR,,0.00,WeatherDisplay:10.37,2013-09-09 09:45:00,
2013-09-09 02:50:00,59.0,41.9,30.14,SSE,158,0.0,0.0,53,0.00,CLR,,0.00,WeatherDisplay:10.37,2013-09-09 09:50:00,
2013-09-09 02:55:00,58.8,41.7,30.14,WSW,248,0.0,0.0,53,0.00,CLR,,0.00,WeatherDisplay:10.37,2013-09-09 09:55:00,
2013-09-09 03:00:00,58.6,41.5,30.14,WSW,248,0.0,0.0,53,0.00,CLR,,0.00,WeatherDisplay:10.37,2013-09-09 10:00:00,
2013-09-09 03:05:00,58.6,41.5,30.14,WSW,248,0.0,0.0,53,0.00,CLR,,0.00,WeatherDisplay:10.37,2013-09-09 10:05:00,
2013-09-09 03:10:00,58.6,41.5,30.14,WSW,248,0.0,0.0,53,0.00,CLR,,0.00,WeatherDisplay:10.37,2013-09-09 10:10:00,
2013-09-09 03:15:00,58.3,41.2,30.14,SSW,202,0.0,0.0,53,0.00,CLR,,0.00,WeatherDisplay:10.37,2013-09-09 10:15:00,
2013-09-09 03:20:00,58.3,41.2,30.14,SW,225,0.0,0.0,53,0.00,CLR,,0.00,WeatherDisplay:10.37,2013-09-09 10:20:00,
2013-09-09 03:25:00,58.1,41.0,30.14,SE,135,0.0,0.0,53,0.00,CLR,,0.00,WeatherDisplay:10.37,2013-09-09 10:25:00,
2013-09-09 03:30:00,58.1,41.0,30.14,SE,135,0.0,0.0,53,0.00,CLR,,0.00,WeatherDisplay:10.37,2013-09-09 10:30:00,
2013-09-09 03:35:00,58.1,41.0,30.14,SSW,202,0.0,0.0,53,0.00,CLR,,0.00,WeatherDisplay:10.37,2013-09-09 10:35:00,
2013-09-09 03:40:00,57.9,40.9,30.14,SE,135,0.0,0.0,53,0.00,CLR,,0.00,WeatherDisplay:10.37,2013-09-09 10:40:00,
2013-09-09 03:45:00,57.9,40.9,30.14,SE,135,0.0,0.0,53,0.00,CLR,,0.00,WeatherDisplay:10.37,2013-09-09 10:45:00,
2013-09-09 03:50:00,57.9,40.9,30.14,ENE,68,0.0,0.0,53,0.00,CLR,,0.00,WeatherDisplay:10.37,2013-09-09 10:50:00,
2013-09-09 03:55:00,57.9,40.9,30.14,ENE,68,0.0,0.0,53,0.00,CLR,,0.00,WeatherDisplay:10.37,2013-09-09 10:55:00,
2013-09-09 04:00:00,57.9,41.4,30.14,SE,135,0.0,0.0,54,0.00,CLR,,0.00,WeatherDisplay:10.37,2013-09-09 11:00:00,
2013-09-09 04:05:00,57.7,41.2,30.15,WNW,292,0.0,0.0,54,0.00,CLR,,0.00,WeatherDisplay:10.37,2013-09-09 11:05:00,
2013-09-09 04:10:00,57.4,40.4,30.15,ENE,68,0.0,0.0,53,0.00,CLR,,0.00,WeatherDisplay:10.37,2013-09-09 11:10:00,
2013-09-09 04:15:00,57.4,40.4,30.15,NNE,22,0.0,0.0,53,0.00,CLR,,0.00,WeatherDisplay:10.37,2013-09-09 11:15:00,
2013-09-09 04:20:00,57.4,40.4,30.15,ESE,112,0.0,0.0,53,0.00,CLR,,0.00,WeatherDisplay:10.37,2013-09-09 11:20:00,
2013-09-09 04:25:00,57.4,40.4,30.15,NE,45,0.0,0.0,53,0.00,CLR,,0.00,WeatherDisplay:10.37,2013-09-09 11:25:00,
2013-09-09 04:30:00,57.6,41.0,30.15,NE,45,0.0,0.0,54,0.00,CLR,,0.00,WeatherDisplay:10.37,2013-09-09 11:30:00,
2013-09-09 04:35:00,57.7,41.2,30.15,ESE,112,0.0,0.0,54,0.00,CLR,,0.00,WeatherDisplay:10.37,2013-09-09 11:35:00,
2013-09-09 04:40:00,57.7,41.2,30.15,ESE,112,0.0,0.0,54,0.00,CLR,,0.00,WeatherDisplay:10.37,2013-09-09 11:40:00,
2013-09-09 04:45:00,57.7,41.2,30.15,ESE,112,0.0,0.0,54,0.00,CLR,,0.00,WeatherDisplay:10.37,2013-09-09 11:45:00,
2013-09-09 04:50:00,57.6,41.0,30.15,SE,135,0.0,0.0,54,0.00,CLR,,0.00,WeatherDisplay:10.37,2013-09-09 11:50:00,
2013-09-09 04:55:00,57.6,41.0,30.15,SE,135,0.0,0.0,54,0.00,CLR,,0.00,WeatherDisplay:10.37,2013-09-09 11:55:00,
2013-09-09 05:00:00,57.7,41.2,30.15,East,90,0.0,0.0,54,0.00,CLR,,0.00,WeatherDisplay:10.37,2013-09-09 12:00:00,
2013-09-09 05:05:00,57.7,41.2,30.15,SE,135,0.0,0.0,54,0.00,CLR,,0.00,WeatherDisplay:10.37,2013-09-09 12:05:00,
2013-09-09 05:10:00,57.7,41.2,30.15,NE,45,0.0,0.0,54,0.00,CLR,,0.00,WeatherDisplay:10.37,2013-09-09 12:10:00,
2013-09-09 05:15:00,57.7,41.7,30.15,East,90,0.0,0.0,55,0.00,CLR,,0.00,WeatherDisplay:10.37,2013-09-09 12:15:00,
2013-09-09 05:20:00,57.9,41.8,30.15,ESE,112,0.0,0.0,55,0.00,CLR,,0.00,WeatherDisplay:10.37,2013-09-09 12:20:00,
2013-09-09 05:25:00,57.9,41.8,30.15,East,90,0.0,0.0,55,0.00,CLR,,0.00,WeatherDisplay:10.37,2013-09-09 12:25:00,
2013-09-09 05:30:00,57.9,41.8,30.15,South,180,0.0,0.0,55,0.00,CLR,,0.00,WeatherDisplay:10.37,2013-09-09 12:30:00,
2013-09-09 05:35:00,57.6,41.5,30.15,NW,315,0.0,0.0,55,0.00,CLR,,0.00,WeatherDisplay:10.37,2013-09-09 12:35:00,
2013-09-09 05:40:00,57.6,41.5,30.15,NNE,22,0.0,0.0,55,0.00,CLR,,0.00,WeatherDisplay:10.37,2013-09-09 12:40:00,
2013-09-09 05:45:00,57.6,41.5,30.15,North,0,0.0,0.0,55,0.00,CLR,,0.00,WeatherDisplay:10.37,2013-09-09 12:45:00,
2013-09-09 05:50:00,57.6,41.5,30.15,NW,315,0.0,0.0,55,0.00,CLR,,0.00,WeatherDisplay:10.37,2013-09-09 12:50:00,
2013-09-09 05:55:00,57.4,41.8,30.15,North,0,0.0,0.0,56,0.00,CLR,,0.00,WeatherDisplay:10.37,2013-09-09 12:55:00,
2013-09-09 06:00:00,57.4,41.8,30.15,NW,315,0.0,0.0,56,0.00,CLR,,0.00,WeatherDisplay:10.37,2013-09-09 13:00:00,
2013-09-09 06:05:00,57.4,41.8,30.15,North,0,0.0,0.0,56,0.00,CLR,,0.00,WeatherDisplay:10.37,2013-09-09 13:05:00,
2013-09-09 06:10:00,57.4,41.8,30.15,North,0,0.0,0.0,56,0.00,CLR,,0.00,WeatherDisplay:10.37,2013-09-09 13:10:00,
2013-09-09 06:15:00,57.4,41.8,30.15,North,0,0.0,0.0,56,0.00,CLR,,0.00,WeatherDisplay:10.37,2013-09-09 13:15:00,
2013-09-09 06:20:00,57.6,42.4,30.15,East,90,0.0,0.0,57,0.00,CLR,,0.00,WeatherDisplay:10.37,2013-09-09 13:20:00,
2013-09-09 06:25:00,57.6,42.4,30.16,NNW,338,0.0,0.0,57,0.00,CLR,,0.00,WeatherDisplay:10.37,2013-09-09 13:25:00,
2013-09-09 06:30:00,57.7,42.6,30.16,East,90,0.0,0.0,57,0.00,CLR,,0.00,WeatherDisplay:10.37,2013-09-09 13:30:00,
2013-09-09 06:35:00,57.7,42.6,30.16,SE,135,0.0,0.0,57,0.00,CLR,,0.00,WeatherDisplay:10.37,2013-09-09 13:35:00,
2013-09-09 06:40:00,57.7,42.6,30.16,SSE,158,0.0,0.0,57,0.00,CLR,,0.00,WeatherDisplay:10.37,2013-09-09 13:40:00,
2013-09-09 06:45:00,57.7,42.6,30.15,NW,315,0.0,0.0,57,0.00,CLR,,0.00,WeatherDisplay:10.37,2013-09-09 13:45:00,
2013-09-09 06:50:00,57.6,42.4,30.15,ENE,68,0.0,0.0,57,0.00,CLR,,0.00,WeatherDisplay:10.37,2013-09-09 13:50:00,
2013-09-09 06:55:00,57.6,42.4,30.15,NW,315,0.0,0.0,57,0.00,CLR,,0.00,WeatherDisplay:10.37,2013-09-09 13:55:00,
2013-09-09 07:00:00,57.7,42.6,30.15,NW,315,0.0,0.0,57,0.00,CLR,,0.00,WeatherDisplay:10.37,2013-09-09 14:00:00,
2013-09-09 07:05:00,57.7,42.6,30.17,NW,315,0.0,0.0,57,0.00,CLR,,0.00,WeatherDisplay:10.37,2013-09-09 14:05:00,
2013-09-09 07:10:00,57.6,42.4,30.17,NW,315,0.0,0.0,57,0.00,CLR,,0.00,WeatherDisplay:10.37,2013-09-09 14:10:00,
2013-09-09 07:15:00,57.6,42.4,30.17,NNE,22,0.0,0.0,57,0.00,CLR,,0.00,WeatherDisplay:10.37,2013-09-09 14:15:00,
2013-09-09 07:20:00,57.6,42.4,30.17,NE,45,0.0,0.0,57,0.00,CLR,,0.00,WeatherDisplay:10.37,2013-09-09 14:20:00,
2013-09-09 07:25:00,57.4,42.3,30.18,West,270,0.0,0.0,57,0.00,CLR,,0.00,WeatherDisplay:10.37,2013-09-09 14:25:00,
2013-09-09 07:30:00,57.4,42.7,30.18,South,180,1.2,1.2,58,0.00,CLR,,0.00,WeatherDisplay:10.37,2013-09-09 14:30:00,
2013-09-09 07:35:00,57.4,42.7,30.18,SSW,202,0.0,0.2,58,0.00,CLR,,0.00,WeatherDisplay:10.37,2013-09-09 14:35:00,
2013-09-09 07:40:00,57.6,42.9,30.18,South,180,0.0,0.0,58,0.00,CLR,,0.00,WeatherDisplay:10.37,2013-09-09 14:40:00,
2013-09-09 07:45:00,57.6,42.9,30.19,South,180,0.0,0.0,58,0.00,CLR,,0.00,WeatherDisplay:10.37,2013-09-09 14:45:00,
2013-09-09 07:50:00,57.6,42.9,30.19,SSE,158,0.0,0.0,58,0.00,CLR,,0.00,WeatherDisplay:10.37,2013-09-09 14:50:00,
2013-09-09 07:55:00,57.7,43.5,30.19,WSW,248,0.0,0.0,59,0.00,CLR,,0.00,WeatherDisplay:10.37,2013-09-09 14:55:00,
2013-09-09 08:00:00,57.7,43.5,30.19,South,180,0.0,0.0,59,0.00,CLR,,0.00,WeatherDisplay:10.37,2013-09-09 15:00:00,
2013-09-09 08:05:00,57.7,43.5,30.18,WSW,248,0.0,0.0,59,0.00,CLR,,0.00,WeatherDisplay:10.37,2013-09-09 15:05:00,
2013-09-09 08:10:00,58.1,43.8,30.18,WSW,248,0.0,0.0,59,0.00,CLR,,0.00,WeatherDisplay:10.37,2013-09-09 15:10:00,
2013-09-09 08:15:00,58.3,44.0,30.18,SSW,202,1.2,1.2,59,0.00,CLR,,0.00,WeatherDisplay:10.37,2013-09-09 15:15:00,
2013-09-09 08:20:00,58.3,44.0,30.18,South,180,0.0,0.2,59,0.00,CLR,,0.00,WeatherDisplay:10.37,2013-09-09 15:20:00,
2013-09-09 08:25:00,58.5,44.2,30.18,NE,45,0.0,0.2,59,0.00,CLR,,0.00,WeatherDisplay:10.37,2013-09-09 15:25:00,
2013-09-09 08:30:00,58.5,44.2,30.18,NW,315,1.2,1.2,59,0.00,CLR,,0.00,WeatherDisplay:10.37,2013-09-09 15:30:00,
2013-09-09 08:35:00,58.8,44.5,30.18,SW,225,0.0,0.2,59,0.00,CLR,,0.00,WeatherDisplay:10.37,2013-09-09 15:35:00,
2013-09-09 08:41:00,59.2,44.9,30.18,ESE,112,0.0,0.0,59,0.00,CLR,,0.00,WeatherDisplay:10.37,2013-09-09 15:41:00,
2013-09-09 08:46:00,59.2,44.9,30.19,North,0,0.0,0.0,59,0.00,CLR,,0.00,WeatherDisplay:10.37,2013-09-09 15:46:00,
2013-09-09 08:51:00,59.2,44.4,30.19,NW,315,0.0,0.0,58,0.00,CLR,,0.00,WeatherDisplay:10.37,2013-09-09 15:51:00,
2013-09-09 08:56:00,59.2,44.4,30.19,NW,315,0.0,0.1,58,0.00,CLR,,0.00,WeatherDisplay:10.37,2013-09-09 15:56:00,
2013-09-09 09:01:00,59.7,44.9,30.19,NW,315,0.0,0.1,58,0.00,CLR,,0.00,WeatherDisplay:10.37,2013-09-09 16:01:00,
2013-09-09 09:06:00,59.4,44.6,30.19,NW,315,2.3,2.3,58,0.00,CLR,,0.00,WeatherDisplay:10.37,2013-09-09 16:06:00,
2013-09-09 09:11:00,59.4,44.6,30.19,West,270,0.0,0.6,58,0.00,CLR,,0.00,WeatherDisplay:10.37,2013-09-09 16:11:00,
2013-09-09 09:16:00,59.5,44.3,30.19,NW,315,1.2,1.2,57,0.00,CLR,,0.00,WeatherDisplay:10.37,2013-09-09 16:16:00,
2013-09-09 09:21:00,59.5,44.3,30.19,SW,225,0.0,0.3,57,0.00,CLR,,0.00,WeatherDisplay:10.37,2013-09-09 16:21:00,
2013-09-09 09:26:00,59.7,44.5,30.19,West,270,0.0,0.2,57,0.00,CLR,,0.00,WeatherDisplay:10.37,2013-09-09 16:26:00,
2013-09-09 09:31:00,60.3,45.0,30.19,SW,225,1.3,1.3,57,0.00,CLR,,0.00,WeatherDisplay:10.37,2013-09-09 16:31:00,
2013-09-09 09:36:00,60.3,45.0,30.19,SW,225,1.6,1.6,57,0.00,CLR,,0.00,WeatherDisplay:10.37,2013-09-09 16:36:00,
2013-09-09 09:41:00,60.3,45.0,30.19,NE,45,0.0,0.5,57,0.00,CLR,,0.00,WeatherDisplay:10.37,2013-09-09 16:41:00,
2013-09-09 09:46:00,59.9,44.6,30.19,NW,315,0.0,0.2,57,0.00,CLR,,0.00,WeatherDisplay:10.37,2013-09-09 16:46:00,
2013-09-09 09:51:00,60.4,45.1,30.19,NW,315,1.5,0.0,57,0.00,CLR,,0.00,WeatherDisplay:10.37,2013-09-09 16:51:00,
2013-09-09 09:56:00,60.4,45.1,30.19,NW,315,2.3,2.3,57,0.00,CLR,,0.00,WeatherDisplay:10.37,2013-09-09 16:56:00,
2013-09-09 10:01:00,60.6,44.8,30.19,NW,315,0.0,0.3,56,0.00,CLR,,0.00,WeatherDisplay:10.37,2013-09-09 17:01:00,
2013-09-09 10:06:00,60.8,44.5,30.19,North,0,0.0,0.2,55,0.00,CLR,,0.00,WeatherDisplay:10.37,2013-09-09 17:06:00,
2013-09-09 10:11:00,60.8,44.5,30.19,WSW,248,1.3,1.3,55,0.00,CLR,,0.00,WeatherDisplay:10.37,2013-09-09 17:11:00,
2013-09-09 10:16:00,61.2,44.9,30.19,South,180,1.2,1.2,55,0.00,CLR,,0.00,WeatherDisplay:10.37,2013-09-09 17:16:00,
2013-09-09 10:21:00,61.3,45.0,30.19,NNW,338,1.2,1.2,55,0.00,CLR,,0.00,WeatherDisplay:10.37,2013-09-09 17:21:00,
2013-09-09 10:26:00,61.3,44.5,30.19,NNW,338,1.2,1.2,54,0.00,CLR,,0.00,WeatherDisplay:10.37,2013-09-09 17:26:00,
2013-09-09 10:31:00,61.5,44.7,30.19,NW,315,0.0,0.7,54,0.00,CLR,,0.00,WeatherDisplay:10.37,2013-09-09 17:31:00,
2013-09-09 10:36:00,61.9,45.0,30.19,South,180,1.2,1.2,54,0.00,CLR,,0.00,WeatherDisplay:10.37,2013-09-09 17:36:00,
2013-09-09 10:41:00,62.2,45.4,30.19,SSE,158,0.0,0.1,54,0.00,CLR,,0.00,WeatherDisplay:10.37,2013-09-09 17:41:00,
2013-09-09 10:46:00,62.6,45.2,30.19,North,0,0.0,0.0,53,0.00,CLR,,0.00,WeatherDisplay:10.37,2013-09-09 17:46:00,
2013-09-09 10:51:00,62.8,44.9,30.19,NE,45,0.0,0.3,52,0.00,CLR,,0.00,WeatherDisplay:10.37,2013-09-09 17:51:00,
2013-09-09 10:56:00,63.0,45.1,30.19,NNW,338,2.3,2.3,52,0.00,CLR,,0.00,WeatherDisplay:10.37,2013-09-09 17:56:00,
2013-09-09 11:01:00,63.9,45.4,30.19,NNW,338,2.3,2.3,51,0.00,CLR,,0.00,WeatherDisplay:10.37,2013-09-09 18:01:00,
2013-09-09 11:06:00,65.1,46.0,30.17,SSW,202,0.0,0.5,50,0.00,CLR,,0.00,WeatherDisplay:10.37,2013-09-09 18:06:00,
2013-09-09 11:11:00,66.2,45.4,30.17,ENE,68,0.0,0.6,47,0.00,CLR,,0.00,WeatherDisplay:10.37,2013-09-09 18:11:00,
2013-09-09 11:16:00,66.4,45.0,30.17,NNE,22,0.0,0.6,46,0.00,CLR,,0.00,WeatherDisplay:10.37,2013-09-09 18:16:00,
2013-09-09 11:21:00,67.8,45.7,30.17,ESE,112,2.3,2.3,45,0.00,CLR,,0.00,WeatherDisplay:10.37,2013-09-09 18:21:00,
2013-09-09 11:26:00,67.5,44.2,30.10,SSW,202,2.3,2.3,43,0.00,CLR,,0.00,WeatherDisplay:10.37,2013-09-09 18:26:00,
2013-09-09 11:31:00,68.2,44.2,30.10,South,180,0.0,0.5,42,0.00,CLR,,0.00,WeatherDisplay:10.37,2013-09-09 18:31:00,
2013-09-09 11:36:00,68.9,44.2,30.10,West,270,1.2,1.2,41,0.00,CLR,,0.00,WeatherDisplay:10.37,2013-09-09 18:36:00,
2013-09-09 11:41:00,70.5,43.0,30.10,WSW,248,1.2,1.2,37,0.00,CLR,,0.00,WeatherDisplay:10.37,2013-09-09 18:41:00,
2013-09-09 11:46:00,71.1,43.5,30.08,WNW,292,3.5,3.5,37,0.00,CLR,,0.00,WeatherDisplay:10.37,2013-09-09 18:46:00,
2013-09-09 11:51:00,72.0,42.8,30.08,NNW,338,1.2,1.2,35,0.00,CLR,,0.00,WeatherDisplay:10.37,2013-09-09 18:51:00,
2013-09-09 11:56:00,72.5,41.7,30.08,SE,135,1.2,1.2,33,0.00,CLR,,0.00,WeatherDisplay:10.37,2013-09-09 18:56:00,
2013-09-09 12:01:00,72.1,40.6,30.08,North,0,0.0,0.5,32,0.00,CLR,,0.00,WeatherDisplay:10.37,2013-09-09 19:01:00,
2013-09-09 12:06:00,72.1,40.6,30.11,NE,45,2.3,2.3,32,0.00,CLR,,0.00,WeatherDisplay:10.37,2013-09-09 19:06:00,
2013-09-09 12:11:00,72.1,40.6,30.11,NE,45,2.3,2.3,32,0.00,CLR,,0.00,WeatherDisplay:10.37,2013-09-09 19:11:00,
2013-09-09 12:16:00,70.9,38.7,30.11,NNE,22,1.2,1.2,31,0.00,CLR,,0.00,WeatherDisplay:10.37,2013-09-09 19:16:00,
2013-09-09 12:21:00,71.2,39.0,30.11,NW,315,2.3,2.3,31,0.00,CLR,,0.00,WeatherDisplay:10.37,2013-09-09 19:21:00,
2013-09-09 12:26:00,71.4,39.2,30.12,West,270,2.3,2.3,31,0.00,CLR,,0.00,WeatherDisplay:10.37,2013-09-09 19:26:00,
2013-09-09 13:38:00,72.0,38.8,30.12,WNW,292,3.5,3.5,30,0.00,CLR,,0.00,WeatherDisplay:10.37,2013-09-09 20:38:00,
2013-09-09 13:43:00,76.5,26.9,30.10,NW,315,2.5,2.5,16,0.00,CLR,,0.00,WeatherDisplay:10.37,2013-09-09 20:43:00,
2013-09-09 13:48:00,75.2,27.4,30.10,NW,315,2.3,2.3,17,0.00,CLR,,0.00,WeatherDisplay:10.37,2013-09-09 20:48:00,
2013-09-09 13:53:00,76.1,30.8,30.10,SW,225,4.6,4.6,19,0.00,CLR,,0.00,WeatherDisplay:10.37,2013-09-09 20:53:00,
2013-09-09 13:58:00,77.2,27.5,30.10,NW,315,2.3,2.3,16,0.00,CLR,,0.00,WeatherDisplay:10.37,2013-09-09 20:58:00,
2013-09-09 14:03:00,76.8,27.2,30.10,NE,45,2.3,2.3,16,0.00,CLR,,0.00,WeatherDisplay:10.37,2013-09-09 21:03:00,
2013-09-09 14:08:00,78.3,26.8,30.10,WNW,292,3.5,3.5,15,0.00,CLR,,0.00,WeatherDisplay:10.37,2013-09-09 21:08:00,
2013-09-09 14:13:00,77.9,21.2,30.10,NW,315,4.6,4.6,12,0.00,CLR,,0.00,WeatherDisplay:10.37,2013-09-09 21:13:00,
2013-09-09 14:18:00,77.0,22.4,30.10,WNW,292,2.3,2.3,13,0.00,CLR,,0.00,WeatherDisplay:10.37,2013-09-09 21:18:00,
2013-09-09 14:23:00,76.8,22.2,30.10,East,90,3.5,3.5,13,0.00,CLR,,0.00,WeatherDisplay:10.37,2013-09-09 21:23:00,
2013-09-09 14:28:00,77.9,23.1,30.10,SSW,202,2.8,2.8,13,0.00,CLR,,0.00,WeatherDisplay:10.37,2013-09-09 21:28:00,
2013-09-09 14:33:00,78.3,21.4,30.10,West,270,2.3,2.3,12,0.00,CLR,,0.00,WeatherDisplay:10.37,2013-09-09 21:33:00,
2013-09-09 14:38:00,79.0,22.0,30.10,NW,315,2.3,2.3,12,0.00,CLR,,0.00,WeatherDisplay:10.37,2013-09-09 21:38:00,
2013-09-09 14:43:00,77.9,19.1,30.09,NE,45,2.3,2.3,11,0.00,CLR,,0.00,WeatherDisplay:10.37,2013-09-09 21:43:00,
2013-09-09 14:48:00,79.0,22.0,30.09,SSW,202,4.6,4.6,12,0.00,CLR,,0.00,WeatherDisplay:10.37,2013-09-09 21:48:00,
2013-09-09 14:53:00,80.2,23.0,30.09,SW,225,2.3,2.3,12,0.00,CLR,,0.00,WeatherDisplay:10.37,2013-09-09 21:53:00,
2013-09-09 14:58:00,80.4,21.1,30.09,WSW,248,2.3,2.3,11,0.00,CLR,,0.00,WeatherDisplay:10.37,2013-09-09 21:58:00,
2013-09-09 15:03:00,80.2,13.5,30.08,WSW,248,2.3,2.3,8,0.00,CLR,,0.00,WeatherDisplay:10.37,2013-09-09 22:03:00,
2013-09-09 15:08:00,79.5,20.4,30.08,NNW,338,4.6,4.6,11,0.00,CLR,,0.00,WeatherDisplay:10.37,2013-09-09 22:08:00,
2013-09-09 15:13:00,79.9,20.6,30.08,NW,315,3.5,3.5,11,0.00,CLR,,0.00,WeatherDisplay:10.37,2013-09-09 22:13:00,
2013-09-09 15:18:00,79.5,13.0,30.08,NW,315,0.0,1.7,8,0.00,CLR,,0.00,WeatherDisplay:10.37,2013-09-09 22:18:00,
2013-09-09 15:23:00,78.6,12.3,30.08,WNW,292,4.6,4.6,8,0.00,CLR,,0.00,WeatherDisplay:10.37,2013-09-09 22:23:00,
2013-09-09 15:28:00,79.9,20.6,30.08,ENE,68,1.2,2.1,11,0.00,CLR,,0.00,WeatherDisplay:10.37,2013-09-09 22:28:00,
2013-09-09 15:33:00,80.2,13.5,30.08,NW,315,4.6,4.6,8,0.00,CLR,,0.00,WeatherDisplay:10.37,2013-09-09 22:33:00,
2013-09-09 15:38:00,80.4,13.7,30.08,WSW,248,2.3,2.3,8,0.00,CLR,,0.00,WeatherDisplay:10.37,2013-09-09 22:38:00,
2013-09-09 15:43:00,80.4,13.7,30.07,NW,315,1.2,1.6,8,0.00,CLR,,0.00,WeatherDisplay:10.37,2013-09-09 22:43:00,
2013-09-09 15:48:00,81.5,11.4,30.07,South,180,3.5,3.5,7,0.00,CLR,,0.00,WeatherDisplay:10.37,2013-09-09 22:48:00,
2013-09-09 15:54:00,81.5,4.0,30.07,NW,315,2.3,2.3,5,0.00,CLR,,0.00,WeatherDisplay:10.37,2013-09-09 22:54:00,
2013-09-09 15:59:00,81.7,4.1,30.07,SW,225,2.3,2.3,5,0.00,CLR,,0.00,WeatherDisplay:10.37,2013-09-09 22:59:00,
2013-09-09 16:04:00,81.9,4.2,30.07,SW,225,3.5,3.5,5,0.00,CLR,,0.00,WeatherDisplay:10.37,2013-09-09 23:04:00,
2013-09-09 16:09:00,81.5,4.0,30.07,West,270,4.6,4.6,5,0.00,CLR,,0.00,WeatherDisplay:10.37,2013-09-09 23:09:00,
2013-09-09 16:14:00,81.7,4.1,30.07,SSW,202,4.6,4.6,5,0.00,CLR,,0.00,WeatherDisplay:10.37,2013-09-09 23:14:00,
2013-09-09 16:19:00,81.5,4.0,30.07,West,270,3.5,3.5,5,0.00,CLR,,0.00,WeatherDisplay:10.37,2013-09-09 23:19:00,
2013-09-09 16:24:00,81.3,3.9,30.08,NW,315,2.3,2.8,5,0.00,CLR,,0.00,WeatherDisplay:10.37,2013-09-09 23:24:00,
2013-09-09 16:29:00,81.9,4.2,30.08,South,180,2.3,2.3,5,0.00,CLR,,0.00,WeatherDisplay:10.37,2013-09-09 23:29:00,
2013-09-09 16:34:00,81.5,4.0,30.08,WSW,248,4.6,4.6,5,0.00,CLR,,0.00,WeatherDisplay:10.37,2013-09-09 23:34:00,
2013-09-09 16:39:00,81.5,4.0,30.08,NW,315,2.3,2.3,5,0.00,CLR,,0.00,WeatherDisplay:10.37,2013-09-09 23:39:00,
2013-09-09 16:44:00,80.2,3.1,30.08,SW,225,5.8,5.8,5,0.00,CLR,,0.00,WeatherDisplay:10.37,2013-09-09 23:44:00,
2013-09-09 16:49:00,79.3,2.5,30.08,WSW,248,3.5,3.5,5,0.00,CLR,,0.00,WeatherDisplay:10.37,2013-09-09 23:49:00,
2013-09-09 16:54:00,79.0,2.2,30.08,NNW,338,3.5,3.5,5,0.00,CLR,,0.00,WeatherDisplay:10.37,2013-09-09 23:54:00,
2013-09-09 16:59:00,77.9,1.4,30.08,NNE,22,2.3,2.3,5,0.00,CLR,,0.00,WeatherDisplay:10.37,2013-09-09 23:59:00,
2013-09-09 17:04:00,77.4,1.1,30.08,SSW,202,4.6,4.6,5,0.00,CLR,,0.00,WeatherDisplay:10.37,2013-09-10 00:04:00,
2013-09-09 17:09:00,76.6,13.5,30.08,NW,315,1.2,2.3,9,0.00,CLR,,0.00,WeatherDisplay:10.37,2013-09-10 00:09:00,
2013-09-09 17:14:00,76.3,13.2,30.08,South,180,2.3,2.3,9,0.00,CLR,,0.00,WeatherDisplay:10.37,2013-09-10 00:14:00,
2013-09-09 17:19:00,76.1,15.5,30.08,South,180,2.3,2.3,10,0.00,CLR,,0.00,WeatherDisplay:10.37,2013-09-10 00:19:00,
2013-09-09 17:24:00,75.9,15.4,30.08,West,270,3.5,3.5,10,0.00,CLR,,0.00,WeatherDisplay:10.37,2013-09-10 00:24:00,
2013-09-09 17:29:00,75.6,15.1,30.08,West,270,2.3,2.3,10,0.00,CLR,,0.00,WeatherDisplay:10.37,2013-09-10 00:29:00,
2013-09-09 17:34:00,75.4,17.2,30.08,WSW,248,1.2,1.7,11,0.00,CLR,,0.00,WeatherDisplay:10.37,2013-09-10 00:34:00,
2013-09-09 17:39:00,75.0,20.8,30.08,WSW,248,4.1,4.1,13,0.00,CLR,,0.00,WeatherDisplay:10.37,2013-09-10 00:39:00,
2013-09-09 17:44:00,75.0,20.8,30.09,SW,225,3.5,3.5,13,0.00,CLR,,0.00,WeatherDisplay:10.37,2013-09-10 00:44:00,
2013-09-09 17:49:00,74.7,22.3,30.09,West,270,0.0,1.4,14,0.00,CLR,,0.00,WeatherDisplay:10.37,2013-09-10 00:49:00,
2013-09-09 17:54:00,74.5,22.1,30.09,West,270,0.0,1.2,14,0.00,CLR,,0.00,WeatherDisplay:10.37,2013-09-10 00:54:00,
2013-09-09 17:59:00,74.1,23.5,30.09,NNW,338,1.2,1.2,15,0.00,CLR,,0.00,WeatherDisplay:10.37,2013-09-10 00:59:00,
2013-09-09 18:04:00,73.8,24.7,30.08,WSW,248,1.2,1.2,16,0.00,CLR,,0.00,WeatherDisplay:10.37,2013-09-10 01:04:00,
2013-09-09 18:09:00,73.8,26.2,30.08,West,270,2.3,2.3,17,0.00,CLR,,0.00,WeatherDisplay:10.37,2013-09-10 01:09:00,
2013-09-09 18:14:00,73.6,27.4,30.08,West,270,0.0,0.9,18,0.00,CLR,,0.00,WeatherDisplay:10.37,2013-09-10 01:14:00,
2013-09-09 18:19:00,73.2,28.5,30.08,SSW,202,2.3,2.3,19,0.00,CLR,,0.00,WeatherDisplay:10.37,2013-09-10 01:19:00,
2013-09-09 18:24:00,73.0,29.6,30.08,WNW,292,1.2,1.2,20,0.00,CLR,,0.00,WeatherDisplay:10.37,2013-09-10 01:24:00,
2013-09-09 18:29:00,72.9,29.4,30.08,NW,315,0.0,0.3,20,0.00,CLR,,0.00,WeatherDisplay:10.37,2013-09-10 01:29:00,
2013-09-09 18:34:00,72.9,29.4,30.08,WNW,292,0.0,0.1,20,0.00,CLR,,0.00,WeatherDisplay:10.37,2013-09-10 01:34:00,
2013-09-09 18:39:00,72.5,29.1,30.08,NW,315,0.0,0.0,20,0.00,CLR,,0.00,WeatherDisplay:10.37,2013-09-10 01:39:00,
2013-09-09 18:44:00,72.3,29.0,30.07,NNE,22,2.3,2.3,20,0.00,CLR,,0.00,WeatherDisplay:10.37,2013-09-10 01:44:00,
2013-09-09 18:49:00,72.0,29.9,30.07,NNE,22,0.0,0.3,21,0.00,CLR,,0.00,WeatherDisplay:10.37,2013-09-10 01:49:00,
2013-09-09 18:54:00,71.6,30.7,30.07,North,0,0.0,0.0,22,0.00,CLR,,0.00,WeatherDisplay:10.37,2013-09-10 01:54:00,
2013-09-09 18:59:00,71.4,31.7,30.07,NE,45,0.0,0.0,23,0.00,CLR,,0.00,WeatherDisplay:10.37,2013-09-10 01:59:00,
2013-09-09 19:04:00,70.9,32.3,30.08,NNW,338,0.0,0.0,24,0.00,CLR,,0.00,WeatherDisplay:10.37,2013-09-10 02:04:00,
2013-09-09 19:09:00,70.5,34.9,30.08,East,90,0.0,0.0,27,0.00,CLR,,0.00,WeatherDisplay:10.37,2013-09-10 02:09:00,
2013-09-09 19:14:00,70.3,35.7,30.08,NW,315,0.0,0.0,28,0.00,CLR,,0.00,WeatherDisplay:10.37,2013-09-10 02:14:00,
2013-09-09 19:19:00,69.8,36.1,30.08,NW,315,0.0,0.0,29,0.00,CLR,,0.00,WeatherDisplay:10.37,2013-09-10 02:19:00,
2013-09-09 19:24:00,69.6,36.8,30.09,West,270,0.0,0.0,30,0.00,CLR,,0.00,WeatherDisplay:10.37,2013-09-10 02:24:00,
2013-09-09 19:29:00,69.3,37.3,30.09,South,180,1.2,0.0,31,0.00,CLR,,0.00,WeatherDisplay:10.37,2013-09-10 02:29:00,
2013-09-09 19:34:00,69.1,37.2,30.09,WSW,248,0.0,0.0,31,0.00,CLR,,0.00,WeatherDisplay:10.37,2013-09-10 02:34:00,
2013-09-09 19:39:00,68.4,38.1,30.09,SSE,158,0.0,0.0,33,0.00,CLR,,0.00,WeatherDisplay:10.37,2013-09-10 02:39:00,
2013-09-09 19:44:00,68.2,38.0,30.08,SSE,158,0.0,0.0,33,0.00,CLR,,0.00,WeatherDisplay:10.37,2013-09-10 02:44:00,
2013-09-09 19:49:00,67.5,38.1,30.08,SSE,158,0.0,0.0,34,0.00,CLR,,0.00,WeatherDisplay:10.37,2013-09-10 02:49:00,
2013-09-09 19:54:00,67.3,38.7,30.08,ESE,112,0.0,0.0,35,0.00,CLR,,0.00,WeatherDisplay:10.37,2013-09-10 02:54:00,
2013-09-09 19:59:00,66.9,38.4,30.08,SSE,158,0.0,0.0,35,0.00,CLR,,0.00,WeatherDisplay:10.37,2013-09-10 02:59:00,
2013-09-09 20:04:00,66.7,38.9,30.09,South,180,0.0,0.0,36,0.00,CLR,,0.00,WeatherDisplay:10.37,2013-09-10 03:04:00,
2013-09-09 20:09:00,66.2,39.1,30.09,South,180,0.0,0.0,37,0.00,CLR,,0.00,WeatherDisplay:10.37,2013-09-10 03:09:00,
2013-09-09 20:14:00,66.0,39.0,30.09,South,180,0.0,0.0,37,0.00,CLR,,0.00,WeatherDisplay:10.37,2013-09-10 03:14:00,
2013-09-09 20:19:00,65.7,39.3,30.09,SSE,158,0.0,0.0,38,0.00,CLR,,0.00,WeatherDisplay:10.37,2013-09-10 03:19:00,
2013-09-09 20:24:00,65.5,39.2,30.09,South,180,0.0,0.0,38,0.00,CLR,,0.00,WeatherDisplay:10.37,2013-09-10 03:24:00,
2013-09-09 20:29:00,65.3,39.0,30.09,South,180,0.0,0.0,38,0.00,CLR,,0.00,WeatherDisplay:10.37,2013-09-10 03:29:00,
2013-09-09 20:34:00,64.9,39.4,30.09,South,180,0.0,0.0,39,0.00,CLR,,0.00,WeatherDisplay:10.37,2013-09-10 03:34:00,
2013-09-09 20:39:00,64.6,39.0,30.09,South,180,0.0,0.0,39,0.00,CLR,,0.00,WeatherDisplay:10.37,2013-09-10 03:39:00,
2013-09-09 20:44:00,64.4,38.9,30.09,South,180,0.0,0.0,39,0.00,CLR,,0.00,WeatherDisplay:10.37,2013-09-10 03:44:00,
2013-09-09 20:49:00,64.0,39.2,30.09,South,180,0.0,0.0,40,0.00,CLR,,0.00,WeatherDisplay:10.37,2013-09-10 03:49:00,
2013-09-09 20:54:00,63.9,39.7,30.09,South,180,0.0,0.0,41,0.00,CLR,,0.00,WeatherDisplay:10.37,2013-09-10 03:54:00,
2013-09-09 20:59:00,63.7,39.5,30.09,SW,225,0.0,0.0,41,0.00,CLR,,0.00,WeatherDisplay:10.37,2013-09-10 03:59:00,
2013-09-09 21:01:00,63.7,39.5,30.09,SW,225,0.0,0.0,41,0.00,CLR,,0.00,WeatherDisplay:10.37,2013-09-10 04:01:00,
2013-09-09 21:02:00,63.7,39.5,30.09,SW,225,0.0,0.0,41,0.00,CLR,,0.00,WeatherDisplay:10.37,2013-09-10 04:02:00,
2013-09-09 21:03:00,63.5,39.4,30.10,South,180,0.0,0.0,41,0.00,CLR,,0.00,WeatherDisplay:10.37,2013-09-10 04:03:00,
2013-09-09 21:06:00,63.3,39.8,30.10,SW,225,0.0,0.0,42,0.00,CLR,,0.00,WeatherDisplay:10.37,2013-09-10 04:06:00,
2013-09-09 21:11:00,63.1,39.7,30.10,South,180,0.0,0.0,42,0.00,CLR,,0.00,WeatherDisplay:10.37,2013-09-10 04:11:00,
2013-09-09 21:16:00,63.0,40.1,30.10,South,180,0.0,0.0,43,0.00,CLR,,0.00,WeatherDisplay:10.37,2013-09-10 04:16:00,
2013-09-09 21:21:00,63.0,40.1,30.10,SSW,202,0.0,0.0,43,0.00,CLR,,0.00,WeatherDisplay:10.37,2013-09-10 04:21:00,
2013-09-09 21:26:00,62.8,40.5,30.10,South,180,0.0,0.0,44,0.00,CLR,,0.00,WeatherDisplay:10.37,2013-09-10 04:26:00,
2013-09-09 21:31:00,62.6,40.4,30.10,South,180,0.0,0.0,44,0.00,CLR,,0.00,WeatherDisplay:10.37,2013-09-10 04:31:00,
2013-09-09 21:36:00,62.4,40.2,30.10,SSE,158,0.0,0.0,44,0.00,CLR,,0.00,WeatherDisplay:10.37,2013-09-10 04:36:00,
2013-09-09 21:41:00,62.4,40.2,30.10,SE,135,0.0,0.0,44,0.00,CLR,,0.00,WeatherDisplay:10.37,2013-09-10 04:41:00,
2013-09-09 21:49:00,62.4,40.2,30.11,ESE,112,0.0,0.0,44,0.00,CLR,,0.00,WeatherDisplay:10.37,2013-09-10 04:49:00,
2013-09-09 21:54:00,62.4,40.8,30.11,ESE,112,0.0,0.0,45,0.00,CLR,,0.00,WeatherDisplay:10.37,2013-09-10 04:54:00,
2013-09-09 21:59:00,62.2,40.6,30.11,WNW,292,0.0,0.0,45,0.00,CLR,,0.00,WeatherDisplay:10.37,2013-09-10 04:59:00,
2013-09-09 22:04:00,62.1,40.5,30.10,NW,315,0.0,0.0,45,0.00,CLR,,0.00,WeatherDisplay:10.37,2013-09-10 05:04:00,
2013-09-09 22:09:00,61.7,40.1,30.10,NW,315,0.0,0.0,45,0.00,CLR,,0.00,WeatherDisplay:10.37,2013-09-10 05:09:00,
2013-09-09 22:14:00,61.3,39.8,30.10,South,180,0.0,0.0,45,0.00,CLR,,0.00,WeatherDisplay:10.37,2013-09-10 05:14:00,
2013-09-09 22:19:00,61.3,39.8,30.10,SW,225,0.0,0.0,45,0.00,CLR,,0.00,WeatherDisplay:10.37,2013-09-10 05:19:00,
2013-09-09 22:24:00,61.2,39.6,30.10,SSW,202,0.0,0.0,45,0.00,CLR,,0.00,WeatherDisplay:10.37,2013-09-10 05:24:00,
2013-09-09 22:29:00,61.0,39.5,30.10,South,180,0.0,0.0,45,0.00,CLR,,0.00,WeatherDisplay:10.37,2013-09-10 05:29:00,
2013-09-09 22:34:00,61.0,39.5,30.10,South,180,0.0,0.0,45,0.00,CLR,,0.00,WeatherDisplay:10.37,2013-09-10 05:34:00,
2013-09-09 22:39:00,60.6,39.7,30.10,South,180,0.0,0.0,46,0.00,CLR,,0.00,WeatherDisplay:10.37,2013-09-10 05:39:00,
2013-09-09 22:44:00,60.6,40.3,30.10,SSE,158,0.0,0.0,47,0.00,CLR,,0.00,WeatherDisplay:10.37,2013-09-10 05:44:00,
2013-09-09 22:49:00,60.4,40.1,30.10,SSW,202,0.0,0.0,47,0.00,CLR,,0.00,WeatherDisplay:10.37,2013-09-10 05:49:00,
2013-09-09 22:54:00,60.3,39.9,30.10,SSE,158,0.0,0.0,47,0.00,CLR,,0.00,WeatherDisplay:10.37,2013-09-10 05:54:00,
2013-09-09 22:59:00,60.1,39.8,30.10,SW,225,0.0,0.0,47,0.00,CLR,,0.00,WeatherDisplay:10.37,2013-09-10 05:59:00,
2013-09-09 23:04:00,59.9,39.6,30.10,SW,225,0.0,0.0,47,0.00,CLR,,0.00,WeatherDisplay:10.37,2013-09-10 06:04:00,
2013-09-09 23:09:00,59.7,39.4,30.10,South,180,0.0,0.0,47,0.00,CLR,,0.00,WeatherDisplay:10.37,2013-09-10 06:09:00,
2013-09-09 23:14:00,59.5,39.3,30.10,South,180,0.0,0.0,47,0.00,CLR,,0.00,WeatherDisplay:10.37,2013-09-10 06:14:00,
2013-09-09 23:19:00,59.4,39.1,30.10,South,180,0.0,0.0,47,0.00,CLR,,0.00,WeatherDisplay:10.37,2013-09-10 06:19:00,
2013-09-09 23:24:00,59.4,39.1,30.10,SW,225,0.0,0.0,47,0.00,CLR,,0.00,WeatherDisplay:10.37,2013-09-10 06:24:00,
2013-09-09 23:29:00,59.4,39.1,30.10,SW,225,0.0,0.0,47,0.00,CLR,,0.00,WeatherDisplay:10.37,2013-09-10 06:29:00,
2013-09-09 23:34:00,59.2,38.9,30.10,SW,225,0.0,0.0,47,0.00,CLR,,0.00,WeatherDisplay:10.37,2013-09-10 06:34:00,
2013-09-09 23:39:00,59.0,38.8,30.10,SW,225,0.0,0.0,47,0.00,CLR,,0.00,WeatherDisplay:10.37,2013-09-10 06:39:00,
2013-09-09 23:44:00,59.0,38.8,30.10,SSW,202,0.0,0.0,47,0.00,CLR,,0.00,WeatherDisplay:10.37,2013-09-10 06:44:00,
2013-09-09 23:49:00,58.8,38.6,30.10,South,180,0.0,0.0,47,0.00,CLR,,0.00,WeatherDisplay:10.37,2013-09-10 06:49:00,
2013-09-09 23:54:00,58.6,39.0,30.10,SSW,202,0.0,0.0,48,0.00,CLR,,0.00,WeatherDisplay:10.37,2013-09-10 06:54:00,
2013-09-09 23:59:00,58.6,39.0,30.10,SW,225,0.0,0.0,48,0.00,CLR,,0.00,WeatherDisplay:10.37,2013-09-10 06:59:00,